Latest Coastal Weather Observations for Ballina

IDN60701

Issued at 6:41 pm EST Saturday 25 June 2016 (issued every 10 minutes, with the page automatically refreshed every 10 minutes)

About coastal observations | Map of coastal stations | Coastal observations for NSW | Marine services | Other Formats
Station Details ID: 058198 Name: BALLINA AIRPORT AWS Lat: -28.84 Lon: 153.56 Height: 1.3 m
Data from the previous 72 hours. | See also: Recent months at Ballina
Date/Time
EST
Temp
°C
Wind Pressure Rain since
9am
mm
Weather Cloud Vis
km
Sea
Height
m
Swell
Dir  Spd
kts
Gust
kts
hPa Trend Height
m
Period
s
Dir
25/06:30pm 7.0 CALM 0 0 1018.8 - 0.0 - - 10 - - - -
25/06:00pm 8.0 CALM 0 0 1018.5 - 0.0 - - 10 - - - -
25/05:30pm 9.9 CALM 0 0 1018.2 - 0.0 - - 10 - - - -
25/05:00pm 11.0 W 2 3 1017.8 - 0.0 - - 10 - - - -
25/04:30pm 14.7 WSW 5 7 1017.7 - 0.0 - - 10 - - - -
25/04:00pm 15.7 SW 6 8 1017.4 - 0.0 - - 10 - - - -
25/03:30pm 15.9 SW 7 10 1017.3 - 0.0 - - 10 - - - -
25/03:00pm 16.4 SW 7 9 1017.2 - 0.0 - - 10 - - - -
25/02:30pm 16.6 WSW 7 10 1017.0 - 0.0 - - 10 - - - -
25/02:00pm 16.3 WSW 8 13 1016.9 - 0.0 - - 10 - - - -
25/01:30pm 16.2 SW 8 12 1017.0 - 0.0 - - 10 - - - -
25/01:00pm 16.0 WSW 9 14 1017.1 - 0.0 - - 10 - - - -
25/12:30pm 15.9 WSW 12 17 1017.3 - 0.0 - - 10 - - - -
25/12:00pm 15.4 W 14 18 1017.5 - 0.0 - - 10 - - - -
25/11:30am 15.0 WSW 12 19 1017.7 - 0.0 - - 10 - - - -
25/11:00am 14.6 WSW 13 19 1018.1 - 0.0 - - 10 - - - -
25/10:30am 14.5 W 13 17 1017.9 - 0.0 - - 10 - - - -
25/10:00am 13.8 WSW 14 19 1018.1 - 0.0 - - 10 - - - -
25/09:30am 13.4 W 15 19 1017.7 - 0.0 - - 10 - - - -
25/09:00am 12.6 W 13 21 1017.8 - 0.0 - - 10 - - - -
25/08:30am 11.8 W 11 17 1017.7 - 0.0 - - 10 - - - -
25/08:00am 10.9 W 11 16 1017.3 - 0.0 - - 10 - - - -
25/07:30am 9.8 WSW 9 14 1017.0 - 0.0 - - 10 - - - -
25/07:00am 9.1 SW 6 8 1016.8 - 0.0 - - 10 - - - -
25/06:30am 8.1 WSW 8 11 1016.2 - 0.0 - - 10 - - - -
25/06:00am 7.9 W 11 14 1015.7 - 0.0 - - 10 - - - -
25/05:30am 8.8 W 9 12 1015.5 - 0.0 - - 10 - - - -
25/05:00am 8.3 W 12 14 1014.9 - 0.0 - - 10 - - - -
25/04:30am 9.8 W 10 13 1014.9 - 0.0 - - 10 - - - -
25/04:00am 11.4 WSW 13 21 1014.5 - 0.0 - - 10 - - - -
25/03:39am 10.0 W 13 21 1014.1 - 0.0 - - 10 - - - -
25/03:30am 10.3 SW 8 10 1014.9 - 0.0 - - 10 - - - -
25/03:00am 9.4 W 9 11 1014.6 - 0.0 - - 10 - - - -
25/02:30am 10.8 WSW 10 14 1014.4 - 0.0 - - 10 - - - -
25/02:00am 11.7 SW 8 14 1014.5 - 0.0 - - 10 - - - -
25/01:30am 11.1 WSW 10 13 1014.3 - 0.0 - - 10 - - - -
25/01:00am 12.7 WSW 15 19 1014.0 - 0.0 - - 10 - - - -
25/12:59am 12.8 WSW 14 19 1014.0 - 0.0 - - 10 - - - -
25/12:30am 12.0 WSW 7 9 1014.0 - 0.0 - - 10 - - - -
25/12:00am 12.3 W 11 16 1013.6 - 0.0 - - 10 - - - -
 
Date/Time
EST
Temp
°C
Wind Pressure Rain since
9am
mm
Weather Cloud Vis
km
Sea
Height
m
Swell
Dir  Spd
kts
Gust
kts
hPa Trend Height
m
Period
s
Dir
24/11:30pm 14.0 WSW 10 16 1013.4 - 0.0 - - 10 - - - -
24/11:00pm 14.1 WSW 11 17 1013.0 - 0.0 - - 10 - - - -
24/10:30pm 14.6 WSW 15 23 1012.4 - 0.0 - - 10 - - - -
24/10:00pm 15.1 W 18 26 1011.9 - 0.0 - - 10 - - - -
24/09:30pm 15.2 W 17 27 1011.3 - 0.0 - - 10 - - - -
24/09:00pm 16.1 W 21 33 1010.7 - 0.0 - - 10 - - - -
24/08:35pm 16.2 W 23 33 1010.2 - 0.0 - - 10 - - - -
24/08:30pm 16.2 W 22 30 1010.1 - 0.0 - - 10 - - - -
24/08:00pm 16.3 W 22 29 1009.8 - 0.0 - - 10 - - - -
24/07:37pm 16.6 W 21 31 1009.8 - 0.0 - - 10 - - - -
24/07:30pm 16.7 W 22 31 1009.6 - 0.0 - - 10 - - - -
24/07:00pm 16.9 W 23 35 1009.1 - 0.0 - - 10 - - - -
24/06:30pm 17.4 WNW 23 35 1008.4 - 0.0 - - 10 - - - -
24/06:00pm 17.8 WNW 22 35 1008.2 - 0.0 - - 10 - - - -
24/05:30pm 18.8 W 24 36 1007.8 - 0.0 - - 10 - - - -
24/05:00pm 19.4 W 24 35 1007.7 - 0.0 - - 10 - - - -
24/04:30pm 20.5 W 25 38 1007.1 - 0.0 - - 10 - - - -
24/04:00pm 21.4 W 26 39 1006.4 - 0.0 - - 10 - - - -
24/03:31pm 22.1 WNW 22 32 1006.3 - 0.0 - - 10 - - - -
24/03:30pm 22.1 WNW 23 32 1006.3 - 0.0 - - 10 - - - -
24/03:01pm 22.8 W 19 29 1006.2 - 0.0 - - 10 - - - -
24/03:00pm 22.8 W 19 26 1006.2 - 0.0 - - 10 - - - -
24/02:44pm 22.8 W 23 33 1005.9 - 0.0 - - 10 - - - -
24/02:30pm 22.8 W 25 34 1005.9 - 0.0 - - 10 - - - -
24/02:00pm 23.6 WNW 21 31 1005.9 - 0.0 - - 10 - - - -
24/01:30pm 23.5 W 23 36 1005.9 - 0.0 - - 10 - - - -
24/01:01pm 23.6 WNW 19 30 1006.3 - 0.0 - - 10 - - - -
24/01:00pm 23.6 WNW 19 28 1006.3 - 0.0 - - 10 - - - -
24/12:30pm 23.2 WNW 18 29 1006.7 - 0.0 - - 10 - - - -
24/12:23pm 23.3 WNW 19 29 1006.8 - 0.0 - - 10 - - - -
24/12:14pm 23.2 WNW 21 29 1006.7 - 0.0 - - 10 - - - -
24/12:05pm 23.0 NW 18 28 1006.8 - 0.0 - - 10 - - - -
24/12:00pm 23.3 NW 15 24 1007.0 - 0.0 - - 10 - - - -
24/11:44am 22.8 NW 17 28 1007.2 - 0.0 - - 10 - - - -
24/11:30am 22.9 NW 16 24 1007.6 - 0.0 - Partly cloudy 10 - - - -
24/11:11am 22.4 NW 16 26 1008.0 - 0.0 - - 10 - - - -
24/11:00am 22.6 WNW 14 20 1008.4 - 0.0 - Partly cloudy 10 - - - -
24/10:38am 21.9 NW 15 28 1008.8 - 0.0 - - 10 - - - -
24/10:30am 22.2 NW 15 21 1008.9 - 0.0 - - 10 - - - -
24/10:00am 21.5 NW 13 21 1009.2 - 0.0 - - 10 - - - -
24/09:30am 21.1 NW 11 17 1009.6 - 0.0 - - 10 - - - -
24/09:00am 20.0 NW 11 15 1009.7 - 0.0 - - 10 - - - -
24/08:30am 19.0 NW 11 17 1009.7 - 0.0 - - 10 - - - -
24/08:00am 15.9 NW 7 10 1009.9 - 0.0 - - 10 - - - -
24/07:30am 11.6 N 2 4 1009.8 - 0.0 - - 10 - - - -
24/07:00am 12.2 N 5 6 1009.9 - 0.0 - - 10 - - - -
24/06:30am 11.5 CALM 0 3 1009.6 - 0.0 - - 10 - - - -
24/06:00am 11.5 N 2 3 1009.4 - 0.0 - - 10 - - - -
24/05:30am 12.7 NNE 2 4 1009.2 - 0.0 - - 10 - - - -
24/05:00am 12.8 CALM 0 2 1009.3 - 0.0 - - 10 - - - -
24/04:30am 13.9 NNW 1 4 1009.3 - 0.0 - - 10 - - - -
24/04:00am 13.7 CALM 0 3 1009.5 - 0.0 - - 10 - - - -
24/03:30am 14.3 N 4 6 1009.7 - 0.0 - - 10 - - - -
24/03:00am 14.3 NNE 1 4 1010.1 - 0.0 - Cloudy 10 - - - -
24/02:30am 15.0 N 5 11 1010.4 - 0.0 - - 10 - - - -
24/02:00am 13.9 NE 4 5 1010.6 - 0.0 - - 10 - - - -
24/01:30am 14.7 N 5 7 1010.5 - 0.0 - - 10 - - - -
24/01:00am 14.9 NNW 3 4 1010.8 - 0.0 - Cloudy 10 - - - -
24/12:30am 14.4 N 4 6 1010.8 - 0.0 - Cloudy 10 - - - -
24/12:00am 14.6 N 4 6 1011.1 - 0.0 - Cloudy 10 - - - -
 
Date/Time
EST
Temp
°C
Wind Pressure Rain since
9am
mm
Weather Cloud Vis
km
Sea
Height
m
Swell
Dir  Spd
kts
Gust
kts
hPa Trend Height
m
Period
s
Dir
23/11:30pm 13.6 N 1 4 1011.0 - 0.0 - - 10 - - - -
23/11:00pm 14.1 NNW 3 5 1011.6 - 0.0 - - 10 - - - -
23/10:30pm 14.4 N 5 5 1011.6 - 0.0 - - 10 - - - -
23/10:00pm 14.5 N 3 4 1011.8 - 0.0 - - 10 - - - -
23/09:30pm 14.5 N 4 5 1012.1 - 0.0 - Cloudy 10 - - - -
23/09:00pm 14.6 NW 3 4 1012.1 - 0.0 - Cloudy 10 - - - -
23/08:30pm 14.7 NNW 4 5 1011.8 - 0.0 - Cloudy 10 - - - -
23/08:00pm 15.1 N 6 7 1012.0 - 0.0 - Partly cloudy 10 - - - -
23/07:30pm 15.3 NNW 6 8 1012.3 - 0.0 - - 10 - - - -
23/07:00pm 15.0 NNW 7 9 1012.2 - 0.0 - - 10 - - - -
23/06:30pm 15.2 NNW 6 8 1011.9 - 0.0 - - 10 - - - -
23/06:00pm 15.2 NNW 6 7 1011.7 - 0.0 - Cloudy 10 - - - -
23/05:30pm 15.4 N 5 7 1011.4 - 0.0 - - 10 - - - -
23/05:00pm 15.8 NNW 6 7 1011.5 - 0.0 - - 10 - - - -
23/04:30pm 16.6 NNW 8 12 1011.4 - 0.0 - - 10 - - - -
23/04:00pm 16.9 NNW 9 11 1011.3 - 0.0 - - 10 - - - -
23/03:30pm 17.3 NW 7 9 1011.4 - 0.0 - Partly cloudy 10 - - - -
23/03:00pm 17.5 WNW 9 11 1011.7 - 0.0 - Partly cloudy 10 - - - -
23/02:30pm 17.4 NW 5 7 1012.0 - 0.0 - Partly cloudy 10 - - - -
23/02:00pm 17.6 NW 4 6 1012.3 - 0.0 - - 10 - - - -
23/01:30pm 17.8 NW 6 9 1012.7 - 0.0 - Cloudy 10 - - - -
23/01:00pm 17.8 NW 6 8 1012.8 - 0.0 - Partly cloudy 10 - - - -
23/12:30pm 17.3 NW 5 6 1013.6 - 0.0 - Partly cloudy 10 - - - -
23/12:00pm 17.0 NNW 4 6 1014.0 - 0.0 - Cloudy 10 - - - -
23/11:30am 17.1 NW 4 6 1014.4 - 0.0 - Partly cloudy 10 - - - -
23/11:00am 17.3 NW 4 5 1014.4 - 0.0 - Partly cloudy 10 - - - -
23/10:30am 16.9 NNW 5 6 1015.1 - 0.0 - Cloudy 10 - - - -
23/10:00am 17.1 NNW 3 4 1015.6 - 0.0 - Partly cloudy 10 - - - -
23/09:30am 16.4 W 4 6 1015.3 - 0.0 - Partly cloudy 10 - - - -
23/09:00am 15.0 CALM 0 0 1015.2 - 0.0 - Cloudy 10 - - - -
23/08:30am 13.7 N 3 4 1015.1 - 0.0 - - 10 - - - -
23/08:00am 12.4 ENE 4 5 1014.1 - 0.0 - - 10 - - - -
23/07:30am 12.1 W 1 4 1014.8 - 0.0 - - 10 - - - -
23/07:00am 11.2 CALM 0 0 1014.4 - 0.0 - - 10 - - - -
23/06:30am 10.5 NW 3 4 1014.3 - 0.0 - - 10 - - - -
23/06:00am 11.3 CALM 0 0 1014.1 - 0.0 - Cloudy 10 - - - -
23/05:30am 11.9 W 3 5 1014.2 - 0.0 - - 10 - - - -
23/05:00am 12.1 CALM 0 2 1013.9 - 0.0 - - 10 - - - -
23/04:30am 13.4 W 4 7 1013.6 - 0.0 - - 10 - - - -
23/04:00am 13.4 WSW 5 7 1013.9 - 0.0 - - 10 - - - -
23/03:30am 12.1 WNW 3 5 1013.0 - 0.0 - - 10 - - - -
23/03:00am 12.4 W 3 4 1013.2 - 0.0 - Partly cloudy 10 - - - -
23/02:30am 13.8 NNW 5 7 1012.6 - 0.0 - - 10 - - - -
23/02:00am 13.4 W 4 9 1012.7 - 0.0 - - 10 - - - -
23/01:30am 13.3 W 5 8 1013.4 - 0.0 - - 10 - - - -
23/01:00am 13.9 SSW 3 6 1013.0 - 0.0 - - 10 - - - -
23/12:30am 13.7 WSW 7 10 1013.7 - 0.0 - - 10 - - - -
23/12:00am 12.1 W 5 8 1013.4 - 0.0 - - 10 - - - -
 
Date/Time
EST
Temp
°C
Wind Pressure Rain since
9am
mm
Weather Cloud Vis
km
Sea
Height
m
Swell
Dir  Spd
kts
Gust
kts
hPa Trend Height
m
Period
s
Dir
22/11:30pm 11.2 CALM 0 3 1013.3 - 0.0 - - 10 - - - -
22/11:00pm 12.8 W 3 6 1012.9 - 0.0 - - 10 - - - -
22/10:30pm 14.6 WNW 4 6 1013.3 - 0.0 - - 10 - - - -
22/10:00pm 14.8 NW 7 9 1013.4 - 0.0 - - 10 - - - -
22/09:30pm 15.3 WNW 7 9 1012.7 - 0.0 - - 10 - - - -
22/09:00pm 15.6 NW 5 7 1012.9 - 0.0 - Mostly cloudy 10 - - - -
22/08:30pm 15.8 NW 6 9 1012.9 - 0.0 - - 10 - - - -
22/08:00pm 16.3 WNW 8 10 1012.6 - 0.0 - - 10 - - - -
22/07:30pm 16.5 NW 7 9 1012.8 - 0.0 - - 10 - - - -
22/07:00pm 16.5 WNW 8 11 1012.8 - 0.0 - - 10 - - - -

Other Formats:

Comma delimited format used in spreadsheet applications
http://www.bom.gov.au/fwo/IDN60701/IDN60701.94596.axf

JavaScript Object Notation format (JSON) in row-major order
http://www.bom.gov.au/fwo/IDN60701/IDN60701.94596.json